createdAt,value
2022-09-06T00:00:46.047Z,20.90
2022-09-06T00:01:46.000Z,20.87
2022-09-06T00:02:46.147Z,20.88
2022-09-06T00:03:45.971Z,20.93
2022-09-06T00:04:45.866Z,20.85
2022-09-06T00:05:45.809Z,20.87
2022-09-06T00:06:45.759Z,20.88
2022-09-06T00:07:45.726Z,20.87
2022-09-06T00:08:45.674Z,20.88
2022-09-06T00:09:46.099Z,20.90
2022-09-06T00:10:45.566Z,20.93
2022-09-06T00:11:45.519Z,20.97
2022-09-06T00:12:45.467Z,20.85
2022-09-06T00:13:45.434Z,20.87
2022-09-06T00:14:45.375Z,20.92
2022-09-06T00:15:45.358Z,20.82
2022-09-06T00:16:45.290Z,20.96
2022-09-06T00:17:45.231Z,20.95
2022-09-06T00:18:45.193Z,20.87
2022-09-06T00:19:45.131Z,20.90
2022-09-06T00:20:45.083Z,20.85
2022-09-06T00:21:45.032Z,20.88
2022-09-06T00:22:44.987Z,20.90
2022-09-06T00:23:44.954Z,20.93
2022-09-06T00:24:44.891Z,20.85
2022-09-06T00:25:44.843Z,20.90
2022-09-06T00:26:44.793Z,20.88
2022-09-06T00:27:44.754Z,20.96
2022-09-06T00:28:44.715Z,20.93
2022-09-06T00:29:44.653Z,20.88
2022-09-06T00:30:44.653Z,20.90
2022-09-06T00:31:44.568Z,20.90
2022-09-06T00:32:44.504Z,20.90
2022-09-06T00:33:44.470Z,20.93
2022-09-06T00:34:44.410Z,20.87
2022-09-06T00:35:44.361Z,20.82
2022-09-06T00:36:44.333Z,20.82
2022-09-06T00:37:44.266Z,20.80
2022-09-06T00:38:44.218Z,20.69
2022-09-06T00:39:44.219Z,20.77
2022-09-06T00:40:44.120Z,20.74
2022-09-06T00:41:44.073Z,20.69
2022-09-06T00:42:44.041Z,20.67
2022-09-06T00:43:43.989Z,20.62
2022-09-06T00:44:43.940Z,20.58
2022-09-06T00:45:43.879Z,20.60
2022-09-06T00:46:43.921Z,20.51
2022-09-06T00:47:43.783Z,20.51
2022-09-06T00:48:43.738Z,20.48
2022-09-06T00:49:43.704Z,20.56
2022-09-06T00:50:43.640Z,20.55
2022-09-06T00:51:43.592Z,20.56
2022-09-06T00:52:43.551Z,20.59
2022-09-06T00:53:43.511Z,20.60
2022-09-06T00:54:43.445Z,20.63
2022-09-06T00:55:43.398Z,20.58
2022-09-06T00:56:43.347Z,20.65
2022-09-06T00:57:43.299Z,20.52
2022-09-06T00:58:43.253Z,20.65
2022-09-06T00:59:43.221Z,20.62
2022-09-06T01:00:43.154Z,20.67
2022-09-06T01:01:43.286Z,20.62
2022-09-06T01:02:43.185Z,20.58
2022-09-06T01:03:43.019Z,20.55
2022-09-06T01:04:42.975Z,20.56
2022-09-06T01:05:42.917Z,20.59
2022-09-06T01:06:42.868Z,20.65
2022-09-06T01:07:42.817Z,20.59
2022-09-06T01:08:42.767Z,20.67
2022-09-06T01:09:42.738Z,20.63
2022-09-06T01:10:42.690Z,20.55
2022-09-06T01:11:42.625Z,20.69
2022-09-06T01:12:42.603Z,20.66
2022-09-06T01:13:42.525Z,20.56
2022-09-06T01:14:42.479Z,20.58
2022-09-06T01:15:42.469Z,20.60
2022-09-06T01:16:42.383Z,20.62
2022-09-06T01:17:42.336Z,20.62
2022-09-06T01:18:42.287Z,20.55
2022-09-06T01:19:42.238Z,20.66
2022-09-06T01:20:42.204Z,20.65
2022-09-06T01:21:42.142Z,20.58
2022-09-06T01:22:42.092Z,20.63
2022-09-06T01:23:42.045Z,20.60
2022-09-06T01:24:41.996Z,20.60
2022-09-06T01:25:41.964Z,20.56
2022-09-06T01:26:41.916Z,20.66
2022-09-06T01:27:41.853Z,20.66
2022-09-06T01:28:41.808Z,20.69
2022-09-06T01:29:41.754Z,20.67
2022-09-06T01:30:41.757Z,20.69
2022-09-06T01:31:41.662Z,20.67
2022-09-06T01:32:41.638Z,20.59
2022-09-06T01:33:41.560Z,20.58
2022-09-06T01:34:41.516Z,20.58
2022-09-06T01:35:41.465Z,20.59
2022-09-06T01:36:49.768Z,20.56
2022-09-06T01:37:41.382Z,20.60
2022-09-06T01:38:41.339Z,20.56
2022-09-06T01:39:41.318Z,20.65
2022-09-06T01:40:41.223Z,20.65
2022-09-06T01:41:41.177Z,20.70
2022-09-06T01:42:41.129Z,20.75
2022-09-06T01:43:41.080Z,20.80
2022-09-06T01:44:41.056Z,20.70
2022-09-06T01:45:40.981Z,20.85
2022-09-06T01:46:40.936Z,20.82
2022-09-06T01:47:40.929Z,20.81
2022-09-06T01:48:40.836Z,20.90
2022-09-06T01:49:40.802Z,20.81
2022-09-06T01:50:40.741Z,20.92
2022-09-06T01:51:40.693Z,20.90
2022-09-06T01:52:40.641Z,20.97
2022-09-06T01:53:40.613Z,21.03
2022-09-06T01:54:40.550Z,21.06
2022-09-06T01:55:40.498Z,21.03
2022-09-06T01:56:40.461Z,20.96
2022-09-06T01:57:40.400Z,21.06
2022-09-06T01:58:40.352Z,21.05
2022-09-06T01:59:40.307Z,21.15
2022-09-06T02:00:40.259Z,21.06
2022-09-06T02:01:40.278Z,21.15
2022-09-06T02:02:40.213Z,21.15
2022-09-06T02:03:40.113Z,21.21
2022-09-06T02:04:40.060Z,21.11
2022-09-06T02:05:40.015Z,21.21
2022-09-06T02:06:39.991Z,21.11
2022-09-06T02:07:39.920Z,21.21
2022-09-06T02:08:39.868Z,21.22
2022-09-06T02:09:39.818Z,21.15
2022-09-06T02:10:39.792Z,21.22
2022-09-06T02:11:39.737Z,21.30
2022-09-06T02:12:39.694Z,21.30
2022-09-06T02:13:39.626Z,21.39
2022-09-06T02:14:39.578Z,21.33
2022-09-06T02:15:39.531Z,21.35
2022-09-06T02:16:39.624Z,21.36
2022-09-06T02:17:39.452Z,21.40
2022-09-06T02:18:39.387Z,21.36
2022-09-06T02:19:39.338Z,21.33
2022-09-06T02:20:39.295Z,21.36
2022-09-06T02:21:39.239Z,21.30
2022-09-06T02:22:39.207Z,21.43
2022-09-06T02:23:39.144Z,21.36
2022-09-06T02:24:39.094Z,21.37
2022-09-06T02:25:39.050Z,21.30
2022-09-06T02:26:39.012Z,21.36
2022-09-06T02:27:38.948Z,21.30
2022-09-06T02:28:38.901Z,21.29
2022-09-06T02:29:38.952Z,21.20
2022-09-06T02:30:38.863Z,21.20
2022-09-06T02:31:38.772Z,21.15
2022-09-06T02:32:38.705Z,21.20
2022-09-06T02:33:38.659Z,21.14
2022-09-06T02:34:38.610Z,21.07
2022-09-06T02:35:38.576Z,21.11
2022-09-06T02:36:38.517Z,21.06
2022-09-06T02:37:38.465Z,21.14
2022-09-06T02:38:38.433Z,21.06
2022-09-06T02:39:38.422Z,21.02
2022-09-06T02:40:38.318Z,21.00
2022-09-06T02:41:38.271Z,20.97
2022-09-06T02:42:38.235Z,21.05
2022-09-06T02:43:38.179Z,21.07
2022-09-06T02:44:38.126Z,20.97
2022-09-06T02:45:38.143Z,21.06
2022-09-06T02:46:38.030Z,21.06
2022-09-06T02:47:37.997Z,21.05
2022-09-06T02:48:37.930Z,21.18
2022-09-06T02:49:37.887Z,21.18
2022-09-06T02:50:37.834Z,21.17
2022-09-06T02:51:37.785Z,21.15
2022-09-06T02:52:37.735Z,21.15
2022-09-06T02:53:37.702Z,21.15
2022-09-06T02:54:37.642Z,21.21
2022-09-06T02:55:37.593Z,21.27
2022-09-06T02:56:37.555Z,21.35
2022-09-06T02:57:37.495Z,21.39
2022-09-06T02:58:37.445Z,21.35
2022-09-06T02:59:37.416Z,21.45
2022-09-06T03:00:37.393Z,21.45
2022-09-06T03:01:37.337Z,21.46
2022-09-06T03:02:37.304Z,21.39
2022-09-06T03:03:37.217Z,21.36
2022-09-06T03:04:37.155Z,21.43
2022-09-06T03:05:37.110Z,21.46
2022-09-06T03:06:37.058Z,21.39
2022-09-06T03:07:37.008Z,21.36
2022-09-06T03:08:36.979Z,21.37
2022-09-06T03:09:36.930Z,21.35
2022-09-06T03:10:36.868Z,21.46
2022-09-06T03:11:36.818Z,21.45
2022-09-06T03:12:36.766Z,21.42
2022-09-06T03:13:36.723Z,21.35
2022-09-06T03:14:36.684Z,21.37
2022-09-06T03:15:36.632Z,21.40
2022-09-06T03:16:36.633Z,21.36
2022-09-06T03:17:36.522Z,21.39
2022-09-06T03:18:36.472Z,21.27
2022-09-06T03:19:36.439Z,21.17
2022-09-06T03:20:37.266Z,21.20
2022-09-06T03:21:36.328Z,21.12
2022-09-06T03:22:36.282Z,21.14
2022-09-06T03:23:36.245Z,21.11
2022-09-06T03:24:36.201Z,21.11
2022-09-06T03:25:36.153Z,21.03
2022-09-06T03:26:36.091Z,21.06
2022-09-06T03:27:36.036Z,21.09
2022-09-06T03:28:35.991Z,20.99
2022-09-06T03:29:35.960Z,20.95
2022-09-06T03:30:35.932Z,21.00
2022-09-06T03:31:35.844Z,21.03
2022-09-06T03:32:35.793Z,21.02
2022-09-06T03:33:35.760Z,21.00
2022-09-06T03:34:35.695Z,21.02
2022-09-06T03:35:35.660Z,21.02
2022-09-06T03:36:35.596Z,21.03
2022-09-06T03:37:35.553Z,21.05
2022-09-06T03:38:35.514Z,21.00
2022-09-06T03:39:35.503Z,20.99
2022-09-06T03:40:35.403Z,20.93
2022-09-06T03:41:35.355Z,20.87
2022-09-06T03:42:35.309Z,20.85
2022-09-06T03:43:35.257Z,20.74
2022-09-06T03:44:35.220Z,20.69
2022-09-06T03:45:35.255Z,20.75
2022-09-06T03:46:35.117Z,20.90
2022-09-06T03:47:35.061Z,20.84
2022-09-06T03:48:35.013Z,20.87
2022-09-06T03:49:34.964Z,20.72
2022-09-06T03:50:34.930Z,20.75
2022-09-06T03:51:34.870Z,20.75
2022-09-06T03:52:34.823Z,20.82
2022-09-06T03:53:34.769Z,20.84
2022-09-06T03:54:34.736Z,20.72
2022-09-06T03:55:34.675Z,20.69
2022-09-06T03:56:34.622Z,20.60
2022-09-06T03:57:34.590Z,20.58
2022-09-06T03:58:34.525Z,20.59
2022-09-06T03:59:34.507Z,20.55
2022-09-06T04:00:34.428Z,20.56
2022-09-06T04:01:34.417Z,20.55
2022-09-06T04:02:34.374Z,20.52
2022-09-06T04:03:34.289Z,20.55
2022-09-06T04:04:34.234Z,20.55
2022-09-06T04:05:34.199Z,20.44
2022-09-06T04:06:34.147Z,20.40
2022-09-06T04:07:34.104Z,20.31
2022-09-06T04:08:34.038Z,20.34
2022-09-06T04:09:33.997Z,20.40
2022-09-06T04:10:33.970Z,20.09
2022-09-06T04:11:33.892Z,20.09
2022-09-06T04:12:33.845Z,20.02
2022-09-06T04:13:33.793Z,19.99
2022-09-06T04:14:33.746Z,19.95
2022-09-06T04:15:33.710Z,19.88
2022-09-06T04:16:33.696Z,19.82
2022-09-06T04:17:33.599Z,19.86
2022-09-06T04:18:33.551Z,19.85
2022-09-06T04:19:33.513Z,19.86
2022-09-06T04:20:33.450Z,19.82
2022-09-06T04:21:33.421Z,19.82
2022-09-06T04:22:33.352Z,19.85
2022-09-06T04:23:36.521Z,19.77
2022-09-06T04:24:33.255Z,19.69
2022-09-06T04:25:33.205Z,19.58
2022-09-06T04:26:33.171Z,19.58
2022-09-06T04:27:33.119Z,19.59
2022-09-06T04:28:33.077Z,19.66
2022-09-06T04:29:33.010Z,19.71
2022-09-06T04:30:32.967Z,19.69
2022-09-06T04:31:32.946Z,19.54
2022-09-06T04:32:32.860Z,19.63
2022-09-06T04:33:32.829Z,19.51
2022-09-06T04:34:32.766Z,19.58
2022-09-06T04:35:32.714Z,19.64
2022-09-06T04:36:32.667Z,19.66
2022-09-06T04:37:32.615Z,19.58
2022-09-06T04:38:32.579Z,19.69
2022-09-06T04:39:32.614Z,19.62
2022-09-06T04:40:32.472Z,19.59
2022-09-06T04:41:32.422Z,19.54
2022-09-06T04:42:32.371Z,19.56
2022-09-06T04:43:32.336Z,19.49
2022-09-06T04:44:32.269Z,19.56
2022-09-06T04:45:32.272Z,19.48
2022-09-06T04:46:32.179Z,19.48
2022-09-06T04:47:32.126Z,19.49
2022-09-06T04:48:32.075Z,19.51
2022-09-06T04:49:39.703Z,19.47
2022-09-06T04:50:31.990Z,19.41
2022-09-06T04:51:31.929Z,19.41
2022-09-06T04:52:31.879Z,19.40
2022-09-06T04:53:31.830Z,19.40
2022-09-06T04:54:31.797Z,19.36
2022-09-06T04:55:31.743Z,19.36
2022-09-06T04:56:31.685Z,19.41
2022-09-06T04:57:31.636Z,19.36
2022-09-06T04:58:31.587Z,19.36
2022-09-06T04:59:31.565Z,19.48
2022-09-06T05:00:31.505Z,19.41
2022-09-06T05:01:31.574Z,19.47
2022-09-06T05:02:31.454Z,19.55
2022-09-06T05:03:31.335Z,19.55
2022-09-06T05:04:31.300Z,19.56
2022-09-06T05:05:31.237Z,19.62
2022-09-06T05:06:31.203Z,19.51
2022-09-06T05:07:31.145Z,19.47
2022-09-06T05:08:31.089Z,19.41
2022-09-06T05:09:31.054Z,19.45
2022-09-06T05:10:30.997Z,19.40
2022-09-06T05:11:30.962Z,19.33
2022-09-06T05:12:30.893Z,19.39
2022-09-06T05:13:30.875Z,19.33
2022-09-06T05:14:30.805Z,19.29
2022-09-06T05:15:30.747Z,19.29
2022-09-06T05:16:30.731Z,19.27
2022-09-06T05:17:30.651Z,19.19
2022-09-06T05:18:30.810Z,19.21
2022-09-06T05:19:30.564Z,19.21
2022-09-06T05:20:30.502Z,19.14
2022-09-06T05:21:30.452Z,19.09
2022-09-06T05:22:30.402Z,19.00
2022-09-06T05:23:30.352Z,19.21
2022-09-06T05:24:30.337Z,19.19
2022-09-06T05:25:30.263Z,19.24
2022-09-06T05:26:30.219Z,19.27
2022-09-06T05:27:30.157Z,19.29
2022-09-06T05:28:30.122Z,19.24
2022-09-06T05:29:30.697Z,19.34
2022-09-06T05:30:30.014Z,19.36
2022-09-06T05:31:30.092Z,19.34
2022-09-06T05:32:29.923Z,19.40
2022-09-06T05:33:29.929Z,19.51
2022-09-06T05:34:29.826Z,19.55
2022-09-06T05:35:29.770Z,19.47
2022-09-06T05:36:29.739Z,19.45
2022-09-06T05:37:29.665Z,19.56
2022-09-06T05:38:29.880Z,19.64
2022-09-06T05:39:29.601Z,19.59
2022-09-06T05:40:29.518Z,19.52
2022-09-06T05:41:29.496Z,19.69
2022-09-06T05:42:29.417Z,19.74
2022-09-06T05:43:29.371Z,19.74
2022-09-06T05:44:29.320Z,19.81
2022-09-06T05:45:29.333Z,19.76
2022-09-06T05:46:29.230Z,19.85
2022-09-06T05:47:29.229Z,19.89
2022-09-06T05:48:31.283Z,19.88
2022-09-06T05:49:29.088Z,19.91
2022-09-06T05:50:29.026Z,19.96
2022-09-06T05:51:28.977Z,19.94
2022-09-06T05:52:28.948Z,19.95
2022-09-06T05:53:28.881Z,19.94
2022-09-06T05:54:28.847Z,19.95
2022-09-06T05:55:28.781Z,19.91
2022-09-06T05:56:28.732Z,19.88
2022-09-06T05:57:28.751Z,19.95
2022-09-06T05:58:28.727Z,19.92
2022-09-06T05:59:28.603Z,19.91
2022-09-06T06:00:28.586Z,19.92
2022-09-06T06:01:28.530Z,19.94
2022-09-06T06:02:28.494Z,19.82
2022-09-06T06:03:28.393Z,19.77
2022-09-06T06:04:28.363Z,19.74
2022-09-06T06:05:28.296Z,19.86
2022-09-06T06:06:28.257Z,19.74
2022-09-06T06:07:28.196Z,19.74
2022-09-06T06:08:28.322Z,19.77
2022-09-06T06:09:28.110Z,19.74
2022-09-06T06:10:28.078Z,19.71
2022-09-06T06:11:28.045Z,19.81
2022-09-06T06:12:27.950Z,19.81
2022-09-06T06:13:27.902Z,19.76
2022-09-06T06:14:27.854Z,19.84
2022-09-06T06:15:27.803Z,19.81
2022-09-06T06:16:27.810Z,19.74
2022-09-06T06:17:27.738Z,19.76
2022-09-06T06:18:27.736Z,19.71
2022-09-06T06:19:27.612Z,19.84
2022-09-06T06:20:27.658Z,19.91
2022-09-06T06:21:27.510Z,19.94
2022-09-06T06:22:27.463Z,19.88
2022-09-06T06:23:27.427Z,19.88
2022-09-06T06:24:27.368Z,19.91
2022-09-06T06:25:27.334Z,20.03
2022-09-06T06:26:27.271Z,20.06
2022-09-06T06:27:27.220Z,20.03
2022-09-06T06:28:27.250Z,20.07
2022-09-06T06:29:27.134Z,20.06
2022-09-06T06:30:27.159Z,20.09
2022-09-06T06:31:27.082Z,20.24
2022-09-06T06:32:26.973Z,20.26
2022-09-06T06:33:26.948Z,20.25
2022-09-06T06:34:26.875Z,20.22
2022-09-06T06:35:26.823Z,20.21
2022-09-06T06:36:26.777Z,20.11
2022-09-06T06:37:26.743Z,20.16
2022-09-06T06:38:26.686Z,20.07
2022-09-06T06:39:26.679Z,20.02
2022-09-06T06:40:26.642Z,20.00
2022-09-06T06:41:26.548Z,20.03
2022-09-06T06:42:26.489Z,20.00
2022-09-06T06:43:26.453Z,20.06
2022-09-06T06:44:26.390Z,20.07
2022-09-06T06:45:26.412Z,20.18
2022-09-06T06:46:26.306Z,20.14
2022-09-06T06:47:26.241Z,20.13
2022-09-06T06:48:26.258Z,20.11
2022-09-06T06:49:26.160Z,20.25
2022-09-06T06:50:26.199Z,20.24
2022-09-06T06:51:26.050Z,20.22
2022-09-06T06:52:25.998Z,20.31
2022-09-06T06:53:25.948Z,20.34
2022-09-06T06:54:25.899Z,20.39
2022-09-06T06:55:25.867Z,20.44
2022-09-06T06:56:25.801Z,20.51
2022-09-06T06:57:25.751Z,20.62
2022-09-06T06:58:25.767Z,20.70
2022-09-06T06:59:25.670Z,20.72
2022-09-06T07:00:28.279Z,20.87
2022-09-06T07:01:25.772Z,20.87
2022-09-06T07:02:25.591Z,20.87
2022-09-06T07:03:25.462Z,21.00
2022-09-06T07:04:25.411Z,21.05
2022-09-06T07:07:34.355Z,21.35
2022-09-06T07:08:25.219Z,21.33
2022-09-06T07:09:25.278Z,21.40
2022-09-06T07:11:25.078Z,21.52
2022-09-06T07:12:25.025Z,21.55
2022-09-06T07:13:24.976Z,21.58
2022-09-06T07:14:24.933Z,21.70
2022-09-06T07:15:24.897Z,21.67
2022-09-06T07:16:24.899Z,21.67
2022-09-06T07:17:24.786Z,21.57
2022-09-06T07:18:24.740Z,21.69
2022-09-06T07:20:24.756Z,21.67
2022-09-06T07:21:40.050Z,21.75
2022-09-06T07:22:24.559Z,21.83
2022-09-06T07:24:24.450Z,21.96
2022-09-06T07:25:24.404Z,21.96
2022-09-06T07:26:24.370Z,22.08
2022-09-06T07:28:24.299Z,22.06
2022-09-06T07:29:24.220Z,22.02
2022-09-06T07:30:24.221Z,22.00
2022-09-06T07:32:24.086Z,21.99
2022-09-06T07:33:24.072Z,21.99
2022-09-06T07:34:23.975Z,21.83
2022-09-06T07:35:23.927Z,21.96
2022-09-06T07:36:23.880Z,21.98
2022-09-06T07:37:23.846Z,22.02
2022-09-06T07:38:23.782Z,21.95
2022-09-06T07:39:23.767Z,21.99
2022-09-06T07:40:23.748Z,22.08
2022-09-06T07:41:23.639Z,22.02
2022-09-06T07:42:23.618Z,21.99
2022-09-06T07:43:23.582Z,22.07
2022-09-06T07:44:23.500Z,22.06
2022-09-06T07:45:23.450Z,22.07
2022-09-06T07:46:23.427Z,22.15
2022-09-06T07:48:23.316Z,22.23
2022-09-06T07:49:23.259Z,22.29
2022-09-06T07:51:23.218Z,22.47
2022-09-06T07:53:30.527Z,22.50
2022-09-06T07:54:31.149Z,22.41
2022-09-06T07:55:22.977Z,22.47
2022-09-06T07:56:22.928Z,22.47
2022-09-06T07:57:22.896Z,22.44
2022-09-06T07:58:22.834Z,22.43
2022-09-06T07:59:22.790Z,22.55
2022-09-06T08:00:22.759Z,22.48
2022-09-06T08:01:22.771Z,22.60
2022-09-06T08:02:22.697Z,22.55
2022-09-06T08:03:22.652Z,22.66
2022-09-06T08:04:22.552Z,22.69
2022-09-06T08:06:22.474Z,22.76
2022-09-06T08:09:22.319Z,23.61
2022-09-06T08:10:22.289Z,24.23
2022-09-06T08:11:22.238Z,24.74
2022-09-06T08:12:22.178Z,25.06
2022-09-06T08:13:22.181Z,25.55
2022-09-06T08:14:22.088Z,26.02
2022-09-06T08:15:22.060Z,26.73
2022-09-06T08:16:22.019Z,27.02
2022-09-06T08:17:21.955Z,26.88
2022-09-06T08:18:21.912Z,27.03
2022-09-06T08:19:21.882Z,27.51
2022-09-06T08:20:21.822Z,28.20
2022-09-06T08:21:21.794Z,28.75
2022-09-06T08:22:21.734Z,29.22
2022-09-06T08:23:21.743Z,29.63
2022-09-06T08:24:21.649Z,29.97
2022-09-06T08:25:21.622Z,30.46
2022-09-06T08:26:21.565Z,30.81
2022-09-06T08:27:21.574Z,31.25
2022-09-06T08:28:24.498Z,31.49
2022-09-06T08:29:21.440Z,31.59
2022-09-06T08:30:21.413Z,31.81
2022-09-06T08:31:21.383Z,31.46
2022-09-06T08:32:21.316Z,31.21
2022-09-06T08:33:21.320Z,31.06
2022-09-06T08:34:21.232Z,30.09
2022-09-06T08:35:21.206Z,29.50
2022-09-06T08:36:21.168Z,29.12
2022-09-06T08:37:24.922Z,28.94
2022-09-06T08:38:21.069Z,29.04
2022-09-06T08:39:21.026Z,29.13
2022-09-06T08:40:21.002Z,29.51
2022-09-06T08:41:20.946Z,30.15
2022-09-06T08:42:20.922Z,30.70
2022-09-06T08:43:20.959Z,30.69
2022-09-06T08:45:20.781Z,30.02
2022-09-06T08:46:20.788Z,29.75
2022-09-06T08:47:20.716Z,29.27
2022-09-06T08:48:20.657Z,29.47
2022-09-06T08:49:20.616Z,29.75
2022-09-06T08:50:20.577Z,30.08
2022-09-06T08:51:20.551Z,30.39
2022-09-06T08:52:20.510Z,30.84
2022-09-06T08:53:20.483Z,31.22
2022-09-06T08:54:20.414Z,31.17
2022-09-06T08:55:20.386Z,30.88
2022-09-06T08:56:20.333Z,30.59
2022-09-06T08:57:20.293Z,30.37
2022-09-06T08:58:20.266Z,30.69
2022-09-06T08:59:20.208Z,31.37
2022-09-06T09:00:20.171Z,31.49
2022-09-06T09:01:20.209Z,31.56
2022-09-06T09:02:20.141Z,31.54
2022-09-06T09:03:20.080Z,31.90
2022-09-06T09:04:20.004Z,32.07
2022-09-06T09:05:19.962Z,32.08
2022-09-06T09:06:19.922Z,32.14
2022-09-06T09:07:19.879Z,32.14
2022-09-06T09:08:19.848Z,32.23
2022-09-06T09:09:19.812Z,32.36
2022-09-06T09:10:19.760Z,32.45
2022-09-06T09:11:19.724Z,32.56
2022-09-06T09:12:19.712Z,32.64
2022-09-06T09:13:19.634Z,32.71
2022-09-06T09:14:19.617Z,32.14
2022-09-06T09:15:19.554Z,32.11
2022-09-06T09:16:19.586Z,31.58
2022-09-06T09:17:19.472Z,31.25
2022-09-06T09:18:19.434Z,31.39
2022-09-06T09:19:19.410Z,30.81
2022-09-06T09:20:19.348Z,30.70
2022-09-06T09:21:19.309Z,30.94
2022-09-06T09:22:19.271Z,31.21
2022-09-06T09:23:19.227Z,31.55
2022-09-06T09:24:19.189Z,31.59
2022-09-06T09:25:19.165Z,31.99
2022-09-06T09:26:19.106Z,32.07
2022-09-06T09:27:19.066Z,31.97
2022-09-06T09:28:19.023Z,32.26
2022-09-06T09:29:21.701Z,32.73
2022-09-06T09:31:18.971Z,32.83
2022-09-06T09:32:18.860Z,32.90
2022-09-06T09:33:18.820Z,32.89
2022-09-06T09:34:18.786Z,33.01
2022-09-06T09:35:18.735Z,32.95
2022-09-06T09:36:18.837Z,33.04
2022-09-06T09:38:18.629Z,32.78
2022-09-06T09:39:18.863Z,32.71
2022-09-06T09:40:18.532Z,32.75
2022-09-06T09:41:18.506Z,32.87
2022-09-06T09:42:18.475Z,32.97
2022-09-06T09:43:18.408Z,33.01
2022-09-06T09:44:18.370Z,32.59
2022-09-06T09:45:18.328Z,32.16
2022-09-06T09:46:18.335Z,31.74
2022-09-06T09:47:18.248Z,31.42
2022-09-06T09:48:18.227Z,30.85
2022-09-06T09:49:18.167Z,30.54
2022-09-06T09:50:18.136Z,30.65
2022-09-06T09:51:25.431Z,30.94
2022-09-06T09:52:18.044Z,31.39
2022-09-06T09:53:18.001Z,31.61
2022-09-06T09:54:17.977Z,31.78
2022-09-06T09:55:17.921Z,31.85
2022-09-06T09:56:17.879Z,31.62
2022-09-06T09:57:17.861Z,31.59
2022-09-06T09:58:17.802Z,31.73
2022-09-06T09:59:17.761Z,31.59
2022-09-06T10:00:17.720Z,31.37
2022-09-06T10:01:17.757Z,31.25
2022-09-06T10:02:17.637Z,31.28
2022-09-06T10:03:17.671Z,31.37
2022-09-06T10:05:17.520Z,32.27
2022-09-06T10:07:17.441Z,32.12
2022-09-06T10:08:17.395Z,32.00
2022-09-06T10:09:19.187Z,32.12
2022-09-06T10:10:17.328Z,32.26
2022-09-06T10:11:17.274Z,32.22
2022-09-06T10:12:17.249Z,32.30
2022-09-06T10:13:17.193Z,32.59
2022-09-06T10:14:17.167Z,32.83
2022-09-06T10:15:17.128Z,32.86
2022-09-06T10:16:17.240Z,32.89
2022-09-06T10:17:17.033Z,32.93
2022-09-06T10:18:16.989Z,33.07
2022-09-06T10:19:16.951Z,32.92
2022-09-06T10:20:17.018Z,32.73
2022-09-06T10:21:16.877Z,32.78
2022-09-06T10:22:16.851Z,32.92
2022-09-06T10:23:16.893Z,33.01
2022-09-06T10:24:32.207Z,33.31
2022-09-06T10:25:16.708Z,33.46
2022-09-06T10:26:16.668Z,33.22
2022-09-06T10:27:16.628Z,32.89
2022-09-06T10:28:16.602Z,32.71
2022-09-06T10:29:16.563Z,32.56
2022-09-06T10:30:16.567Z,32.43
2022-09-06T10:31:16.497Z,32.51
2022-09-06T10:32:16.429Z,32.36
2022-09-06T10:33:16.886Z,32.41
2022-09-06T10:34:16.351Z,32.60
2022-09-06T10:35:16.310Z,32.75
2022-09-06T10:36:16.270Z,32.89
2022-09-06T10:37:16.230Z,32.83
2022-09-06T10:38:16.206Z,32.89
2022-09-06T10:39:16.152Z,32.90
2022-09-06T10:40:16.118Z,32.97
2022-09-06T10:41:16.070Z,33.24
2022-09-06T10:42:16.031Z,33.12
2022-09-06T10:43:16.002Z,33.08
2022-09-06T10:44:15.983Z,32.93
2022-09-06T10:45:15.962Z,32.80
2022-09-06T10:46:15.956Z,32.73
2022-09-06T10:47:15.842Z,32.55
2022-09-06T10:48:15.793Z,32.77
2022-09-06T10:49:15.756Z,33.09
2022-09-06T10:50:15.716Z,33.47
2022-09-06T10:51:15.711Z,33.76
2022-09-06T10:52:15.656Z,33.76
2022-09-06T10:53:15.595Z,33.58
2022-09-06T10:54:15.553Z,33.15
2022-09-06T10:55:15.586Z,32.71
2022-09-06T10:56:15.486Z,32.15
2022-09-06T11:00:15.312Z,31.29
2022-09-06T11:01:15.327Z,31.51
2022-09-06T11:02:15.353Z,31.92
2022-09-06T11:04:15.172Z,32.31
2022-09-06T11:05:44.720Z,32.37
2022-09-06T11:06:17.263Z,32.53
2022-09-06T11:07:15.034Z,32.59
2022-09-06T11:09:14.989Z,32.77
2022-09-06T11:10:14.916Z,33.02
2022-09-06T11:11:14.876Z,33.14
2022-09-06T11:12:14.842Z,33.12
2022-09-06T11:13:14.807Z,33.14
2022-09-06T11:14:14.772Z,33.19
2022-09-06T11:15:14.730Z,33.14
2022-09-06T11:16:14.729Z,33.11
2022-09-06T11:17:14.651Z,32.95
2022-09-06T11:18:14.599Z,32.87
2022-09-06T11:19:14.569Z,32.87
2022-09-06T11:20:14.517Z,32.78
2022-09-06T11:21:19.264Z,32.86
2022-09-06T11:22:14.442Z,33.01
2022-09-06T11:23:14.399Z,33.19
2022-09-06T11:24:14.374Z,33.07
2022-09-06T11:25:14.319Z,32.96
2022-09-06T11:26:14.279Z,32.77
2022-09-06T11:27:14.241Z,32.68
2022-09-06T11:28:14.217Z,32.53
2022-09-06T11:29:14.159Z,32.41
2022-09-06T11:30:14.123Z,32.23
2022-09-06T11:33:14.002Z,32.53
2022-09-06T11:34:13.961Z,32.80
2022-09-06T11:35:13.931Z,33.07
2022-09-06T11:36:13.885Z,33.46
2022-09-06T11:37:13.858Z,33.58
2022-09-06T11:38:13.805Z,33.77
2022-09-06T11:39:13.780Z,33.96
2022-09-06T11:40:29.441Z,34.17
2022-09-06T11:41:13.687Z,34.08
2022-09-06T11:42:13.678Z,33.76
2022-09-06T11:43:13.608Z,33.53
2022-09-06T11:44:13.583Z,33.59
2022-09-06T11:45:13.573Z,33.74
2022-09-06T11:46:16.356Z,33.79
2022-09-06T11:47:13.494Z,34.03
2022-09-06T11:48:13.425Z,34.14
2022-09-06T11:49:13.373Z,34.01
2022-09-06T11:50:13.337Z,33.59
2022-09-06T11:51:13.823Z,33.27
2022-09-06T11:52:13.317Z,33.11
2022-09-06T11:53:13.229Z,32.90
2022-09-06T11:54:13.179Z,32.80
2022-09-06T11:55:13.136Z,32.97
2022-09-06T11:56:13.096Z,33.17
2022-09-06T11:57:13.060Z,33.15
2022-09-06T11:58:13.032Z,33.11
2022-09-06T11:59:12.982Z,33.09
2022-09-06T12:00:12.940Z,33.04
2022-09-06T12:01:12.925Z,33.09
2022-09-06T12:02:12.863Z,33.24
2022-09-06T12:04:12.783Z,33.11
2022-09-06T12:05:12.756Z,33.07
2022-09-06T12:06:12.704Z,32.96
2022-09-06T12:07:12.678Z,32.90
2022-09-06T12:08:12.623Z,33.14
2022-09-06T12:09:12.598Z,33.28
2022-09-06T12:10:12.544Z,33.37
2022-09-06T12:11:12.566Z,33.14
2022-09-06T12:12:16.885Z,33.47
2022-09-06T12:13:12.430Z,33.74
2022-09-06T12:14:12.390Z,33.71
2022-09-06T12:15:12.352Z,33.61
2022-09-06T12:16:12.385Z,33.67
2022-09-06T12:17:12.291Z,33.71
2022-09-06T12:18:12.233Z,33.76
2022-09-06T12:19:12.192Z,33.84
2022-09-06T12:20:12.171Z,34.16
2022-09-06T12:21:12.130Z,34.39
2022-09-06T12:22:12.075Z,34.51
2022-09-06T12:23:12.039Z,34.55
2022-09-06T12:24:12.000Z,34.73
2022-09-06T12:25:11.975Z,34.90
2022-09-06T12:26:11.943Z,35.11
2022-09-06T12:27:11.882Z,35.29
2022-09-06T12:28:11.842Z,34.92
2022-09-06T12:29:11.803Z,34.50
2022-09-06T12:30:11.782Z,34.14
2022-09-06T12:31:18.116Z,33.64
2022-09-06T12:32:11.689Z,33.43
2022-09-06T12:33:11.650Z,33.69
2022-09-06T12:34:11.610Z,33.90
2022-09-06T12:36:11.531Z,34.18
2022-09-06T12:37:11.494Z,34.38
2022-09-06T12:38:11.473Z,34.50
2022-09-06T12:39:11.417Z,34.57
2022-09-06T12:40:11.455Z,34.67
2022-09-06T12:41:11.354Z,34.75
2022-09-06T12:42:11.317Z,34.78
2022-09-06T12:43:11.273Z,34.90
2022-09-06T12:44:11.229Z,35.02
2022-09-06T12:45:11.185Z,34.96
2022-09-06T12:46:11.192Z,34.58
2022-09-06T12:47:11.127Z,34.38
2022-09-06T12:48:11.071Z,34.23
2022-09-06T12:49:11.033Z,33.99
2022-09-06T12:50:10.995Z,33.83
2022-09-06T12:51:10.972Z,33.58
2022-09-06T12:52:10.919Z,33.37
2022-09-06T12:53:14.559Z,33.42
2022-09-06T12:54:10.841Z,33.46
2022-09-06T12:55:10.804Z,33.65
2022-09-06T12:56:10.765Z,33.71
2022-09-06T12:57:10.726Z,33.83
2022-09-06T12:58:10.687Z,33.86
2022-09-06T12:59:10.717Z,34.03
2022-09-06T13:00:19.946Z,34.23
2022-09-06T13:01:10.708Z,34.48
2022-09-06T13:02:10.969Z,34.57
2022-09-06T13:03:10.497Z,34.85
2022-09-06T13:04:10.458Z,34.55
2022-09-06T13:05:10.425Z,34.39
2022-09-06T13:06:10.394Z,34.01
2022-09-06T13:07:10.360Z,33.83
2022-09-06T13:08:10.303Z,33.74
2022-09-06T13:09:10.264Z,33.76
2022-09-06T13:10:10.225Z,33.68
2022-09-06T13:11:10.217Z,33.71
2022-09-06T13:12:10.153Z,33.65
2022-09-06T13:13:10.122Z,33.47
2022-09-06T13:14:13.988Z,33.46
2022-09-06T13:15:10.045Z,33.45
2022-09-06T13:16:10.070Z,33.39
2022-09-06T13:17:09.982Z,33.23
2022-09-06T13:18:09.923Z,33.20
2022-09-06T13:19:09.882Z,33.43